Terminal Aerodrome Forecast
Issued by NWS Denver/Boulder, CO

Home | Current Version | Previous Version | Text Only | Print | Product List | Glossary On
Versions: 1 2 3 4 5 6 7 8 9 10 11 12 13 14 15 16 17 18 19 20 21 22 23 24 25 26 27 28 29 30 31 32 33 34 35 36 37 38 39 40 41 42 43 44 45 46 47 48 49 50
000
FTUS45 KBOU 310257 AAA
TAFDEN
TAF AMD
KDEN 310257Z 3103/0106 17008KT P6SM SCT070 SCT140 BKN220
     FM310600 36012G20KT P6SM SCT070 BKN140
     FM310900 36008KT P6SM SCT008 OVC014
     FM311400 11007KT P6SM BKN018 OVC030
     FM311800 08008KT P6SM SCT018 OVC030
     FM312200 04010KT P6SM SCT025 BKN040 PROB30 3122/0102 -SHRA
      OVC025
     FM010300 13007KT P6SM BKN040=

USA.gov is the U.S. government's official web portal to all federal, state and local government web resources and services.